Time;durP1;ratioP1;P1;durP2;ratioP2;P2;SDS_P1;SDS_P2;PMS_P1;PMS_P2;Temp;Humidity;BMP_temperature;BMP_pressure;BME280_temperature;BME280_humidity;BME280_pressure;Samples;Min_cycle;Max_cycle;Signal;HPM_P1;HPM_P2
2021/09/09 00:02:12;;;;;;;;;;;;;;;;;;5067096;28;19925;-89
2021/09/09 00:04:42;;;;;;;;;;;;;;;;;;5073130;28;20301;-88
2021/09/09 00:07:13;;;;;;;;;;;;;;;;;;5066666;28;19924;-88
2021/09/09 00:09:42;;;;;;;;;;;;;;;;;;5087278;28;19924;-87
2021/09/09 00:12:10;;;;;;;;;;;;;;;;;;5087352;28;19920;-88
2021/09/09 00:14:39;;;;;;;;;;;;;;;;;;5098128;28;19934;-88
2021/09/09 00:17:08;;;;;;;;;;;;;;;;;;5102865;28;19924;-87
2021/09/09 00:19:39;;;;;;;;;;;;;;;;;;5067284;28;20301;-89
2021/09/09 00:22:07;;;;;;;;;;;;;;;;;;5081701;28;19927;-89
2021/09/09 00:24:37;;;;;;;;;;;;;;;;;;5088121;28;20093;-89
2021/09/09 00:27:06;;;;;;;;;;;;;;;;;;5087682;28;19909;-87
2021/09/09 00:29:35;;;;;;;;;;;;;;;;;;5084260;28;19939;-89
2021/09/09 00:32:04;;;;;;;;;;;;;;;;;;5055843;28;19924;-88
2021/09/09 00:34:32;;;;;;;;;;;;;;;;;;5061477;28;19927;-88
2021/09/09 00:37:02;;;;;;;;;;;;;;;;;;5084738;28;20386;-88
2021/09/09 00:39:31;;;;;;;;;;;;;;;;;;5089210;28;19921;-88
2021/09/09 00:41:59;;;;;;;;;;;;;;;;;;5085219;28;19930;-88
2021/09/09 00:44:28;;;;;;;;;;;;;;;;;;5086964;28;19923;-87
2021/09/09 00:47:00;;;;;;;;;;;;;;;;;;5100310;28;19938;-88
2021/09/09 00:49:28;;;;;;;;;;;;;;;;;;5103893;28;19932;-87
2021/09/09 00:51:57;;;;;;;;;;;;;;;;;;5100453;28;19908;-88
2021/09/09 00:54:26;;;;;;;;;;;;;;;;;;5075913;28;19924;-89
2021/09/09 00:56:54;;;;;;;;;;;;;;;;;;5068683;28;19924;-87
2021/09/09 00:59:23;;;;;;;;;;;;;;;;;;5059829;28;19931;-87
2021/09/09 01:01:51;;;;;;;;;;;;;;;;;;5068022;28;19932;-88
2021/09/09 01:04:20;;;;;;;;;;;;;;;;;;5080266;28;20363;-88
2021/09/09 01:06:49;;;;;;;;;;;;;;;;;;5075603;28;19924;-88
2021/09/09 01:09:17;;;;;;;;;;;;;;;;;;5070452;28;19908;-87
2021/09/09 01:11:47;;;;;;;;;;;;;;;;;;5084003;28;19908;-88
2021/09/09 01:14:16;;;;;;;;;;;;;;;;;;5075294;28;21624;-89
2021/09/09 01:16:45;;;;;;;;;;;;;;;;;;5088786;28;19928;-87
2021/09/09 01:19:14;;;;;;;;;;;;;;;;;;5064028;28;19915;-89
2021/09/09 01:21:42;;;;;;;;;;;;;;;;;;5081609;28;19924;-88
2021/09/09 01:24:12;;;;;;;;;;;;;;;;;;5088737;28;20466;-89
2021/09/09 01:26:52;;;;;;;;;;;;;;;;;;5067601;28;20379;-88
2021/09/09 01:29:20;;;;;;;;;;;;;;;;;;5097687;28;19935;-90
2021/09/09 01:31:49;;;;;;;;;;;;;;;;;;5056716;28;19932;-88
2021/09/09 01:34:17;;;;;;;;;;;;;;;;;;5058489;28;19939;-88
2021/09/09 01:36:46;;;;;;;;;;;;;;;;;;5089982;28;19940;-88
2021/09/09 01:39:15;;;;;;;;;;;;;;;;;;5074953;28;19935;-88
2021/09/09 01:41:43;;;;;;;;;;;;;;;;;;5085502;28;19938;-87
2021/09/09 01:44:12;;;;;;;;;;;;;;;;;;5100503;28;19931;-88
2021/09/09 01:46:40;;;;;;;;;;;;;;;;;;5080433;28;19932;-88
2021/09/09 01:49:08;;;;;;;;;;;;;;;;;;5081507;28;20329;-87
2021/09/09 01:51:37;;;;;;;;;;;;;;;;;;5087093;28;19931;-88
2021/09/09 01:54:05;;;;;;;;;;;;;;;;;;5082554;28;20314;-88
2021/09/09 01:56:35;;;;;;;;;;;;;;;;;;5067238;28;20267;-88
2021/09/09 01:59:03;;;;;;;;;;;;;;;;;;5082629;28;19924;-88
2021/09/09 02:01:32;;;;;;;;;;;;;;;;;;5077790;28;20318;-88
2021/09/09 02:04:01;;;;;;;;;;;;;;;;;;5077326;28;19924;-88
2021/09/09 02:06:29;;;;;;;;;;;;;;;;;;5078364;28;19939;-88
2021/09/09 02:08:57;;;;;;;;;;;;;;;;;;5062759;28;19924;-89
2021/09/09 02:11:25;;;;;;;;;;;;;;;;;;5062827;28;19924;-88
2021/09/09 02:13:55;;;;;;;;;;;;;;;;;;5070419;28;19939;-89
2021/09/09 02:16:23;;;;;;;;;;;;;;;;;;5064186;28;20317;-89
2021/09/09 02:18:52;;;;;;;;;;;;;;;;;;5080741;28;19928;-89
2021/09/09 02:21:21;;;;;;;;;;;;;;;;;;5105235;28;19908;-87
2021/09/09 02:23:49;;;;;;;;;;;;;;;;;;5105704;28;19943;-87
2021/09/09 02:26:18;;;;;;;;;;;;;;;;;;5094061;28;19912;-86
2021/09/09 02:28:46;;;;;;;;;;;;;;;;;;5086648;28;19924;-85
2021/09/09 02:31:15;;;;;;;;;;;;;;;;;;5101964;28;20009;-86
2021/09/09 02:33:44;;;;;;;;;;;;;;;;;;5111240;28;19920;-87
2021/09/09 02:36:12;;;;;;;;;;;;;;;;;;5087397;28;19928;-85
2021/09/09 02:38:40;;;;;;;;;;;;;;;;;;5107817;27;19939;-86
2021/09/09 02:41:08;;;;;;;;;;;;;;;;;;5091856;28;19938;-85
2021/09/09 02:43:37;;;;;;;;;;;;;;;;;;5100495;28;19924;-87
2021/09/09 02:46:05;;;;;;;;;;;;;;;;;;5086295;28;19933;-86
2021/09/09 02:48:34;;;;;;;;;;;;;;;;;;5100928;28;19930;-84
2021/09/09 02:51:03;;;;;;;;;;;;;;;;;;5085234;28;19919;-83
2021/09/09 02:53:31;;;;;;;;;;;;;;;;;;5086596;28;19909;-84
2021/09/09 02:55:59;;;;;;;;;;;;;;;;;;5066654;28;20884;-87
2021/09/09 02:58:27;;;;;;;;;;;;;;;;;;5085070;28;19932;-88
2021/09/09 03:00:55;;;;;;;;;;;;;;;;;;5061752;28;19933;-87
2021/09/09 03:03:24;;;;;;;;;;;;;;;;;;5059938;28;19932;-87
2021/09/09 03:05:53;;;;;;;;;;;;;;;;;;5087589;28;20417;-87
2021/09/09 03:08:22;;;;;;;;;;;;;;;;;;5062492;28;19928;-87
2021/09/09 03:10:50;;;;;;;;;;;;;;;;;;5083669;28;19928;-84
2021/09/09 03:13:18;;;;;;;;;;;;;;;;;;5100630;28;19925;-87
2021/09/09 03:15:46;;;;;;;;;;;;;;;;;;5104520;28;19938;-85
2021/09/09 03:18:15;;;;;;;;;;;;;;;;;;5105558;28;19928;-85
2021/09/09 03:20:43;;;;;;;;;;;;;;;;;;5108015;28;19938;-86
2021/09/09 03:23:12;;;;;;;;;;;;;;;;;;5107107;28;19920;-86
2021/09/09 03:25:41;;;;;;;;;;;;;;;;;;5083692;28;19928;-87
2021/09/09 03:28:09;;;;;;;;;;;;;;;;;;5090772;28;19920;-86
2021/09/09 03:30:37;;;;;;;;;;;;;;;;;;5089236;28;19912;-86
2021/09/09 03:33:06;;;;;;;;;;;;;;;;;;5097770;28;19916;-86
2021/09/09 03:35:34;;;;;;;;;;;;;;;;;;5114761;28;19920;-86
2021/09/09 03:38:02;;;;;;;;;;;;;;;;;;5097876;28;19920;-83
2021/09/09 03:40:31;;;;;;;;;;;;;;;;;;5073823;28;19931;-86
2021/09/09 03:43:00;;;;;;;;;;;;;;;;;;5059642;28;19928;-87
2021/09/09 03:45:28;;;;;;;;;;;;;;;;;;5080626;28;19924;-86
2021/09/09 03:47:56;;;;;;;;;;;;;;;;;;5064104;28;19928;-87
2021/09/09 03:50:24;;;;;;;;;;;;;;;;;;5074540;28;19931;-86
2021/09/09 03:52:52;;;;;;;;;;;;;;;;;;5088932;28;19924;-87
2021/09/09 03:55:21;;;;;;;;;;;;;;;;;;5103928;28;19908;-85
2021/09/09 03:57:50;;;;;;;;;;;;;;;;;;5099631;28;19912;-86
2021/09/09 04:00:19;;;;;;;;;;;;;;;;;;5087526;28;19928;-86
2021/09/09 04:02:47;;;;;;;;;;;;;;;;;;5099185;28;19931;-83
2021/09/09 04:05:15;;;;;;;;;;;;;;;;;;5096205;28;19920;-85
2021/09/09 04:07:44;;;;;;;;;;;;;;;;;;5101790;28;19916;-85
2021/09/09 04:10:12;;;;;;;;;;;;;;;;;;5091432;28;19932;-87
2021/09/09 04:12:40;;;;;;;;;;;;;;;;;;5060655;28;20477;-88
2021/09/09 04:15:10;;;;;;;;;;;;;;;;;;5060607;28;19923;-87
2021/09/09 04:17:39;;;;;;;;;;;;;;;;;;5092440;28;19924;-87
2021/09/09 04:20:07;;;;;;;;;;;;;;;;;;5051741;28;19932;-85
2021/09/09 04:22:36;;;;;;;;;;;;;;;;;;5074759;28;19935;-86
2021/09/09 04:25:05;;;;;;;;;;;;;;;;;;5084181;28;19935;-84
2021/09/09 04:27:34;;;;;;;;;;;;;;;;;;5100001;28;19928;-85
2021/09/09 04:30:02;;;;;;;;;;;;;;;;;;5113490;28;19915;-84
2021/09/09 04:32:32;;;;;;;;;;;;;;;;;;5085711;28;19931;-85
2021/09/09 04:35:00;;;;;;;;;;;;;;;;;;5106794;28;20002;-84
2021/09/09 04:37:29;;;;;;;;;;;;;;;;;;5080803;28;19912;-84
2021/09/09 04:39:57;;;;;;;;;;;;;;;;;;5094001;28;20382;-86
2021/09/09 04:42:25;;;;;;;;;;;;;;;;;;5057796;28;19928;-83
2021/09/09 04:44:53;;;;;;;;;;;;;;;;;;5096085;28;20029;-86
2021/09/09 04:47:21;;;;;;;;;;;;;;;;;;5082361;28;19939;-85
2021/09/09 04:49:51;;;;;;;;;;;;;;;;;;5074665;28;19932;-84
2021/09/09 04:52:19;;;;;;;;;;;;;;;;;;5065006;28;20412;-85
2021/09/09 04:54:47;;;;;;;;;;;;;;;;;;5060219;28;19928;-84
2021/09/09 04:57:16;;;;;;;;;;;;;;;;;;5097882;28;19912;-84
2021/09/09 04:59:44;;;;;;;;;;;;;;;;;;5092883;28;20091;-85
2021/09/09 05:02:12;;;;;;;;;;;;;;;;;;5120116;28;19935;-83
2021/09/09 05:04:40;;;;;;;;;;;;;;;;;;5091504;28;19927;-82
2021/09/09 05:07:10;;;;;;;;;;;;;;;;;;5109287;28;19925;-84
2021/09/09 05:09:38;;;;;;;;;;;;;;;;;;5116040;28;19928;-79
2021/09/09 05:12:07;;;;;;;;;;;;;;;;;;5091747;28;19920;-83
2021/09/09 05:14:35;;;;;;;;;;;;;;;;;;5106607;28;19938;-83
2021/09/09 05:17:03;;;;;;;;;;;;;;;;;;5091384;28;19919;-83
2021/09/09 05:19:32;;;;;;;;;;;;;;;;;;5125048;28;19932;-84
2021/09/09 05:22:01;;;;;;;;;;;;;;;;;;5104626;28;19913;-84
2021/09/09 05:24:31;;;;;;;;;;;;;;;;;;5118325;28;19932;-82
2021/09/09 05:26:59;;;;;;;;;;;;;;;;;;5092194;28;19912;-81
2021/09/09 05:29:27;;;;;;;;;;;;;;;;;;5090779;28;19989;-85
2021/09/09 05:31:56;;;;;;;;;;;;;;;;;;5088493;28;19924;-85
2021/09/09 05:34:24;;;;;;;;;;;;;;;;;;5080397;28;19939;-84
2021/09/09 05:36:52;;;;;;;;;;;;;;;;;;5090555;28;19924;-87
2021/09/09 05:39:20;;;;;;;;;;;;;;;;;;5097976;28;19908;-84
2021/09/09 05:41:50;;;;;;;;;;;;;;;;;;5081302;28;19920;-85
2021/09/09 05:44:18;;;;;;;;;;;;;;;;;;5099136;28;19931;-83
2021/09/09 05:46:46;;;;;;;;;;;;;;;;;;5104121;28;19932;-88
2021/09/09 05:49:15;;;;;;;;;;;;;;;;;;5108744;28;19924;-89
2021/09/09 05:51:43;;;;;;;;;;;;;;;;;;5097647;28;19930;-89
2021/09/09 05:54:11;;;;;;;;;;;;;;;;;;5094474;28;19924;-88
2021/09/09 05:56:39;;;;;;;;;;;;;;;;;;5097284;28;19908;-88
2021/09/09 05:59:10;;;;;;;;;;;;;;;;;;5077692;28;19920;-86
2021/09/09 06:01:38;;;;;;;;;;;;;;;;;;5100364;28;19921;-87
2021/09/09 06:04:08;;;;;;;;;;;;;;;;;;5094650;28;19918;-87
2021/09/09 06:06:37;;;;;;;;;;;;;;;;;;5097757;28;19924;-87
2021/09/09 06:09:05;;;;;;;;;;;;;;;;;;5095449;28;19919;-88
2021/09/09 06:11:33;;;;;;;;;;;;;;;;;;5107978;28;20424;-89
2021/09/09 06:14:01;;;;;;;;;;;;;;;;;;5130527;27;19920;-88
2021/09/09 06:16:31;;;;;;;;;;;;;;;;;;5111844;28;19918;-88
2021/09/09 06:19:01;;;;;;;;;;;;;;;;;;5123475;27;19916;-88
2021/09/09 06:21:29;;;;;;;;;;;;;;;;;;5113540;28;19936;-86
2021/09/09 06:23:57;;;;;;;;;;;;;;;;;;5096465;28;19942;-87
2021/09/09 06:26:25;;;;;;;;;;;;;;;;;;5101731;28;19913;-87
2021/09/09 06:28:53;;;;;;;;;;;;;;;;;;5105194;28;19925;-87
2021/09/09 06:31:22;;;;;;;;;;;;;;;;;;5091121;28;19925;-89
2021/09/09 06:33:52;;;;;;;;;;;;;;;;;;5079662;27;19935;-88
2021/09/09 06:36:20;;;;;;;;;;;;;;;;;;5062181;28;19924;-87
2021/09/09 06:38:48;;;;;;;;;;;;;;;;;;5085442;28;19939;-88
2021/09/09 06:41:16;;;;;;;;;;;;;;;;;;5064233;28;19924;-88
2021/09/09 06:43:45;;;;;;;;;;;;;;;;;;5065259;28;19932;-87
2021/09/09 06:46:13;;;;;;;;;;;;;;;;;;5079132;28;19924;-87
2021/09/09 06:48:41;;;;;;;;;;;;;;;;;;5066226;28;19924;-88
2021/09/09 06:51:12;;;;;;;;;;;;;;;;;;5083559;28;19924;-87
2021/09/09 06:53:40;;;;;;;;;;;;;;;;;;5078119;28;19924;-87
2021/09/09 06:56:08;;;;;;;;;;;;;;;;;;5097636;27;19929;-86
2021/09/09 06:58:36;;;;;;;;;;;;;;;;;;5081076;28;19931;-86
2021/09/09 07:01:04;;;;;;;;;;;;;;;;;;5094875;28;19912;-80
2021/09/09 07:03:33;;;;;;;;;;;;;;;;;;5102780;28;19924;-86
2021/09/09 07:06:01;;;;;;;;;;;;;;;;;;5121726;27;19930;-85
2021/09/09 07:08:31;;;;;;;;;;;;;;;;;;5080609;28;19927;-86
2021/09/09 07:10:59;;;;;;;;;;;;;;;;;;5085062;28;19922;-86
2021/09/09 07:13:29;;;;;;;;;;;;;;;;;;5085985;28;19934;-86
2021/09/09 07:15:57;;;;;;;;;;;;;;;;;;5084272;28;20415;-87
2021/09/09 07:18:26;;;;;;;;;;;;;;;;;;5070498;28;20417;-85
2021/09/09 07:20:54;;;;;;;;;;;;;;;;;;5068358;28;19931;-87
2021/09/09 07:23:22;;;;;;;;;;;;;;;;;;5077764;28;19939;-87
2021/09/09 07:25:52;;;;;;;;;;;;;;;;;;5064694;28;19924;-85
2021/09/09 07:28:20;;;;;;;;;;;;;;;;;;5081408;28;20309;-86
2021/09/09 07:30:48;;;;;;;;;;;;;;;;;;5065868;28;19932;-87
2021/09/09 07:33:17;;;;;;;;;;;;;;;;;;5084613;28;19925;-85
2021/09/09 07:35:45;;;;;;;;;;;;;;;;;;5086519;28;19928;-86
2021/09/09 07:38:13;;;;;;;;;;;;;;;;;;5070259;28;19924;-86
2021/09/09 07:40:41;;;;;;;;;;;;;;;;;;5093484;28;20189;-86
2021/09/09 07:43:11;;;;;;;;;;;;;;;;;;5090415;28;19938;-85
2021/09/09 07:45:39;;;;;;;;;;;;;;;;;;5108147;28;19932;-87
2021/09/09 07:48:07;;;;;;;;;;;;;;;;;;5067278;28;19928;-87
2021/09/09 07:50:36;;;;;;;;;;;;;;;;;;5078388;28;20160;-86
2021/09/09 07:53:04;;;;;;;;;;;;;;;;;;5073590;28;20282;-85
2021/09/09 07:55:32;;;;;;;;;;;;;;;;;;5062150;28;20301;-86
2021/09/09 07:58:00;;;;;;;;;;;;;;;;;;5074051;28;19932;-86
2021/09/09 08:00:30;;;;;;;;;;;;;;;;;;5065269;28;19932;-86
2021/09/09 08:02:58;;;;;;;;;;;;;;;;;;5104005;28;19998;-85
2021/09/09 08:05:27;;;;;;;;;;;;;;;;;;5089485;28;19916;-85
2021/09/09 08:07:55;;;;;;;;;;;;;;;;;;5095789;28;19925;-85
2021/09/09 08:10:23;;;;;;;;;;;;;;;;;;5108246;28;22276;-86
2021/09/09 08:12:52;;;;;;;;;;;;;;;;;;5109766;28;19932;-86
2021/09/09 08:15:20;;;;;;;;;;;;;;;;;;5094583;28;19916;-85
2021/09/09 08:17:49;;;;;;;;;;;;;;;;;;5087465;28;19938;-85
2021/09/09 08:20:18;;;;;;;;;;;;;;;;;;5089999;28;19919;-86
2021/09/09 08:22:46;;;;;;;;;;;;;;;;;;5086814;28;19931;-85
2021/09/09 08:25:14;;;;;;;;;;;;;;;;;;5106487;28;19915;-83
2021/09/09 08:27:42;;;;;;;;;;;;;;;;;;5101497;28;19932;-86
2021/09/09 08:30:11;;;;;;;;;;;;;;;;;;5084839;28;19908;-87
2021/09/09 08:32:40;;;;;;;;;;;;;;;;;;5081075;28;19928;-87
2021/09/09 08:35:10;;;;;;;;;;;;;;;;;;5084329;28;19931;-86
2021/09/09 08:37:39;;;;;;;;;;;;;;;;;;5080252;28;19924;-86
2021/09/09 08:40:09;;;;;;;;;;;;;;;;;;5082314;28;19928;-87
2021/09/09 08:42:39;;;;;;;;;;;;;;;;;;5077941;28;19931;-85
2021/09/09 08:45:08;;;;;;;;;;;;;;;;;;5065700;28;19924;-86
2021/09/09 08:47:37;;;;;;;;;;;;;;;;;;5075229;28;19939;-86
2021/09/09 08:50:05;;;;;;;;;;;;;;;;;;5105008;28;19924;-84
2021/09/09 08:52:35;;;;;;;;;;;;;;;;;;5087820;28;19924;-87
2021/09/09 08:55:03;;;;;;;;;;;;;;;;;;5101854;28;19924;-84
2021/09/09 08:57:32;;;;;;;;;;;;;;;;;;5104698;28;19938;-84
2021/09/09 09:00:01;;;;;;;;;;;;;;;;;;5102900;28;19927;-84
2021/09/09 09:02:31;;;;;;;;;;;;;;;;;;5089557;28;19939;-84
2021/09/09 09:05:01;;;;;;;;;;;;;;;;;;5083975;28;19936;-84
2021/09/09 09:07:33;;;;;;;;;;;;;;;;;;5089220;28;19932;-85
2021/09/09 09:10:04;;;;;;;;;;;;;;;;;;5068536;28;19931;-86
2021/09/09 09:12:40;;;;;;;;;;;;;;;;;;5066722;28;19930;-86
2021/09/09 09:15:16;;;;;;;;;;;;;;;;;;5085380;28;20224;-86
2021/09/09 09:18:09;;;;;;;;;;;;;;;;;;5090561;28;20146;-85
2021/09/09 09:20:39;;;;;;;;;;;;;;;;;;5067372;28;19930;-84
2021/09/09 09:23:15;;;;;;;;;;;;;;;;;;5107893;28;19931;-85
2021/09/09 09:25:45;;;;;;;;;;;;;;;;;;5086700;28;19924;-85
2021/09/09 09:28:13;;;;;;;;;;;;;;;;;;5101835;28;19924;-84
2021/09/09 09:30:56;;;;;;;;;;;;;;;;;;5104854;28;19924;-85
2021/09/09 09:33:30;;;;;;;;;;;;;;;;;;5089573;28;19931;-84
2021/09/09 09:36:11;;;;;;;;;;;;;;;;;;5071999;28;19928;-84
2021/09/09 09:38:40;;;;;;;;;;;;;;;;;;5087758;28;19928;-85
2021/09/09 09:41:09;;;;;;;;;;;;;;;;;;5071627;28;23704;-85
2021/09/09 09:43:37;;;;;;;;;;;;;;;;;;5070566;28;20125;-85
2021/09/09 09:46:06;;;;;;;;;;;;;;;;;;5070651;28;19928;-86
2021/09/09 09:48:34;;;;;;;;;;;;;;;;;;5087087;28;19958;-83
2021/09/09 09:51:02;;;;;;;;;;;;;;;;;;5104748;28;19922;-82
2021/09/09 09:53:31;;;;;;;;;;;;;;;;;;5108822;27;19931;-84
2021/09/09 09:55:59;;;;;;;;;;;;;;;;;;5086977;28;19939;-81
2021/09/09 09:58:29;;;;;;;;;;;;;;;;;;5100886;28;19931;-84
2021/09/09 10:00:57;;;;;;;;;;;;;;;;;;5093033;28;19935;-82
2021/09/09 10:03:25;;;;;;;;;;;;;;;;;;5077676;28;19924;-84
2021/09/09 10:05:54;;;;;;;;;;;;;;;;;;5093519;28;20309;-84
2021/09/09 10:08:23;;;;;;;;;;;;;;;;;;5087410;28;19925;-82
2021/09/09 10:10:51;;;;;;;;;;;;;;;;;;5098551;28;19927;-82
2021/09/09 10:13:20;;;;;;;;;;;;;;;;;;5086639;28;19932;-82
2021/09/09 10:15:50;;;;;;;;;;;;;;;;;;5076571;28;20309;-83
2021/09/09 10:18:19;;;;;;;;;;;;;;;;;;5111109;28;19934;-84
2021/09/09 10:20:47;;;;;;;;;;;;;;;;;;5089568;28;19924;-83
2021/09/09 10:23:17;;;;;;;;;;;;;;;;;;5093253;28;19934;-83
2021/09/09 10:25:46;;;;;;;;;;;;;;;;;;5104885;28;20408;-82
2021/09/09 10:28:33;;;;;;;;;;;;;;;;;;5091619;28;19931;-82
2021/09/09 10:31:03;;;;;;;;;;;;;;;;;;5107463;28;19956;-82
2021/09/09 10:33:31;;;;;;;;;;;;;;;;;;5087525;28;19932;-83
2021/09/09 10:36:00;;;;;;;;;;;;;;;;;;5073751;28;19939;-83
2021/09/09 10:38:33;;;;;;;;;;;;;;;;;;5076067;28;19924;-83
2021/09/09 10:41:02;;;;;;;;;;;;;;;;;;5070097;28;19932;-83
2021/09/09 10:43:44;;;;;;;;;;;;;;;;;;5074202;28;19924;-83
2021/09/09 10:46:15;;;;;;;;;;;;;;;;;;5067718;28;19931;-80
2021/09/09 10:48:45;;;;;;;;;;;;;;;;;;5105015;28;19908;-81
2021/09/09 10:51:18;;;;;;;;;;;;;;;;;;5092673;28;19924;-80
2021/09/09 10:53:54;;;;;;;;;;;;;;;;;;5097232;28;19932;-80
2021/09/09 10:56:23;;;;;;;;;;;;;;;;;;5092278;28;19924;-82
2021/09/09 10:59:10;;;;;;;;;;;;;;;;;;5085266;28;19931;-81
2021/09/09 11:01:43;;;;;;;;;;;;;;;;;;5102346;28;19931;-83
2021/09/09 11:04:27;;;;;;;;;;;;;;;;;;5071424;28;19927;-83
2021/09/09 11:06:55;;;;;;;;;;;;;;;;;;5070357;28;19924;-83
2021/09/09 11:09:24;;;;;;;;;;;;;;;;;;5101088;28;20401;-83
2021/09/09 11:11:59;;;;;;;;;;;;;;;;;;5086112;28;20295;-82
2021/09/09 11:14:28;;;;;;;;;;;;;;;;;;5071806;28;19924;-83
2021/09/09 11:16:57;;;;;;;;;;;;;;;;;;5103598;27;19908;-82
2021/09/09 11:19:27;;;;;;;;;;;;;;;;;;5082185;28;19928;-82
2021/09/09 11:22:00;;;;;;;;;;;;;;;;;;5084537;28;19912;-81
2021/09/09 11:24:29;;;;;;;;;;;;;;;;;;5116045;28;19939;-82
2021/09/09 11:26:57;;;;;;;;;;;;;;;;;;5109296;28;19924;-82
2021/09/09 11:29:25;;;;;;;;;;;;;;;;;;5099238;28;19931;-82
2021/09/09 11:31:55;;;;;;;;;;;;;;;;;;5081358;28;19931;-83
2021/09/09 11:34:25;;;;;;;;;;;;;;;;;;5069445;28;19935;-84
2021/09/09 11:36:53;;;;;;;;;;;;;;;;;;5090180;28;19939;-83
2021/09/09 11:39:23;;;;;;;;;;;;;;;;;;5092477;28;19928;-82
2021/09/09 11:41:52;;;;;;;;;;;;;;;;;;5071620;28;19924;-83
2021/09/09 11:44:24;;;;;;;;;;;;;;;;;;5108835;28;20106;-81
2021/09/09 11:46:53;;;;;;;;;;;;;;;;;;5104837;28;19936;-82
2021/09/09 11:49:22;;;;;;;;;;;;;;;;;;5087821;28;19924;-82
2021/09/09 11:51:52;;;;;;;;;;;;;;;;;;5091025;28;19918;-82
2021/09/09 11:54:21;;;;;;;;;;;;;;;;;;5088827;28;19923;-82
2021/09/09 11:56:49;;;;;;;;;;;;;;;;;;5102099;28;19927;-82
2021/09/09 11:59:18;;;;;;;;;;;;;;;;;;5108402;28;19927;-83
2021/09/09 12:01:47;;;;;;;;;;;;;;;;;;5095953;28;19928;-84
2021/09/09 12:04:16;;;;;;;;;;;;;;;;;;5088132;28;20375;-83
2021/09/09 12:06:44;;;;;;;;;;;;;;;;;;5082201;28;20302;-82
2021/09/09 12:09:22;;;;;;;;;;;;;;;;;;5089922;28;19924;-82
2021/09/09 12:11:59;;;;;;;;;;;;;;;;;;5090300;28;19924;-82
2021/09/09 12:14:27;;;;;;;;;;;;;;;;;;5083938;28;19950;-83
2021/09/09 12:17:06;;;;;;;;;;;;;;;;;;5072815;28;19912;-81
2021/09/09 12:19:49;;;;;;;;;;;;;;;;;;5088290;28;19932;-83
2021/09/09 12:22:17;;;;;;;;;;;;;;;;;;5085680;28;20412;-83
2021/09/09 12:24:47;;;;;;;;;;;;;;;;;;5080861;28;19924;-81
2021/09/09 12:27:16;;;;;;;;;;;;;;;;;;5084694;28;19928;-82
2021/09/09 12:29:46;;;;;;;;;;;;;;;;;;5090186;28;19924;-83
2021/09/09 12:32:33;;;;;;;;;;;;;;;;;;5093857;28;19931;-83
2021/09/09 12:35:14;;;;;;;;;;;;;;;;;;5084806;28;20282;-83
2021/09/09 12:37:43;;;;;;;;;;;;;;;;;;5099862;28;19928;-81
2021/09/09 12:40:13;;;;;;;;;;;;;;;;;;5089942;28;19930;-82
2021/09/09 12:42:41;;;;;;;;;;;;;;;;;;5074195;28;19924;-83
2021/09/09 12:45:10;;;;;;;;;;;;;;;;;;5072333;28;19947;-82
2021/09/09 12:47:38;;;;;;;;;;;;;;;;;;5074085;28;19931;-81
2021/09/09 12:50:25;;;;;;;;;;;;;;;;;;5077619;28;19932;-82
2021/09/09 12:52:53;;;;;;;;;;;;;;;;;;5083640;28;19939;-81
2021/09/09 12:55:23;;;;;;;;;;;;;;;;;;5095766;28;19908;-82
2021/09/09 12:57:51;;;;;;;;;;;;;;;;;;5093861;28;19939;-83
2021/09/09 13:00:19;;;;;;;;;;;;;;;;;;5092863;28;19934;-83
2021/09/09 13:02:48;;;;;;;;;;;;;;;;;;5112198;28;19924;-84
2021/09/09 13:05:16;;;;;;;;;;;;;;;;;;5094548;28;19932;-83
2021/09/09 13:07:44;;;;;;;;;;;;;;;;;;5073143;28;19935;-83
2021/09/09 13:10:13;;;;;;;;;;;;;;;;;;5084102;28;19935;-83
2021/09/09 13:12:43;;;;;;;;;;;;;;;;;;5070196;28;19932;-82
2021/09/09 13:15:12;;;;;;;;;;;;;;;;;;5072551;28;19924;-82
2021/09/09 13:17:40;;;;;;;;;;;;;;;;;;5071009;28;19928;-82
2021/09/09 13:20:08;;;;;;;;;;;;;;;;;;5082077;28;19932;-83
2021/09/09 13:22:37;;;;;;;;;;;;;;;;;;5094696;28;20137;-81
2021/09/09 13:25:05;;;;;;;;;;;;;;;;;;5111884;28;19958;-83
2021/09/09 13:27:34;;;;;;;;;;;;;;;;;;5112146;28;19924;-83
2021/09/09 13:30:04;;;;;;;;;;;;;;;;;;5093709;28;19914;-83
2021/09/09 13:32:32;;;;;;;;;;;;;;;;;;5085712;28;19931;-83
2021/09/09 13:35:01;;;;;;;;;;;;;;;;;;5089445;28;19931;-83
2021/09/09 13:37:29;;;;;;;;;;;;;;;;;;5072982;28;19935;-83
2021/09/09 13:39:57;;;;;;;;;;;;;;;;;;5077110;28;19924;-84
2021/09/09 13:42:25;;;;;;;;;;;;;;;;;;5095087;28;19924;-83
2021/09/09 13:44:54;;;;;;;;;;;;;;;;;;5096750;28;20392;-83
2021/09/09 13:47:23;;;;;;;;;;;;;;;;;;5082265;28;19932;-80
2021/09/09 13:49:51;;;;;;;;;;;;;;;;;;5081932;28;19924;-81
2021/09/09 13:52:26;;;;;;;;;;;;;;;;;;5089286;28;21451;-82
2021/09/09 13:54:54;;;;;;;;;;;;;;;;;;5078001;28;19942;-83
2021/09/09 13:57:22;;;;;;;;;;;;;;;;;;5087412;28;19980;-83
2021/09/09 14:00:02;;;;;;;;;;;;;;;;;;5073537;28;19923;-84
2021/09/09 14:02:36;;;;;;;;;;;;;;;;;;5088673;28;20444;-84
2021/09/09 14:05:06;;;;;;;;;;;;;;;;;;5070060;28;20007;-85
2021/09/09 14:07:34;;;;;;;;;;;;;;;;;;5075357;28;20293;-83
2021/09/09 14:10:03;;;;;;;;;;;;;;;;;;5073097;28;19924;-85
2021/09/09 14:12:31;;;;;;;;;;;;;;;;;;5086447;28;19939;-85
2021/09/09 14:14:59;;;;;;;;;;;;;;;;;;5068447;28;19933;-84
2021/09/09 14:17:28;;;;;;;;;;;;;;;;;;5066552;28;19924;-83
2021/09/09 14:19:58;;;;;;;;;;;;;;;;;;5090562;28;19930;-83
2021/09/09 14:22:26;;;;;;;;;;;;;;;;;;5102908;28;19916;-80
2021/09/09 14:24:54;;;;;;;;;;;;;;;;;;5096346;28;19908;-84
2021/09/09 14:27:23;;;;;;;;;;;;;;;;;;5091593;28;19932;-82
2021/09/09 14:29:51;;;;;;;;;;;;;;;;;;5093598;28;20130;-82
2021/09/09 14:32:19;;;;;;;;;;;;;;;;;;5123082;27;20206;-84
2021/09/09 14:34:51;;;;;;;;;;;;;;;;;;5084334;28;20408;-85
2021/09/09 14:37:22;;;;;;;;;;;;;;;;;;5107944;27;19924;-85
2021/09/09 14:39:50;;;;;;;;;;;;;;;;;;5093305;28;19939;-84
2021/09/09 14:42:18;;;;;;;;;;;;;;;;;;5084357;28;19939;-84
2021/09/09 14:44:47;;;;;;;;;;;;;;;;;;5067465;28;19924;-83
2021/09/09 14:47:15;;;;;;;;;;;;;;;;;;5089494;28;19924;-82
2021/09/09 14:49:43;;;;;;;;;;;;;;;;;;5088117;28;19919;-82
2021/09/09 14:52:11;;;;;;;;;;;;;;;;;;5092898;28;19924;-83
2021/09/09 14:54:43;;;;;;;;;;;;;;;;;;5098478;28;19924;-84
2021/09/09 14:57:11;;;;;;;;;;;;;;;;;;5093870;28;19924;-84
2021/09/09 14:59:42;;;;;;;;;;;;;;;;;;5076815;28;19924;-83
2021/09/09 15:02:11;;;;;;;;;;;;;;;;;;5119293;27;19927;-83
2021/09/09 15:04:39;;;;;;;;;;;;;;;;;;5095976;28;19924;-81
2021/09/09 15:07:09;;;;;;;;;;;;;;;;;;5094854;28;19922;-85
2021/09/09 15:09:37;;;;;;;;;;;;;;;;;;5100032;28;19928;-86
2021/09/09 15:12:07;;;;;;;;;;;;;;;;;;5103114;28;19924;-86
2021/09/09 15:14:36;;;;;;;;;;;;;;;;;;5070824;28;20314;-84
2021/09/09 15:17:05;;;;;;;;;;;;;;;;;;5071727;28;19931;-84
2021/09/09 15:19:33;;;;;;;;;;;;;;;;;;5072123;28;19931;-84
2021/09/09 15:22:02;;;;;;;;;;;;;;;;;;5088519;28;19932;-86
2021/09/09 15:24:31;;;;;;;;;;;;;;;;;;5076265;28;19928;-85
2021/09/09 15:26:59;;;;;;;;;;;;;;;;;;5074083;28;20394;-85
2021/09/09 15:29:28;;;;;;;;;;;;;;;;;;5071993;28;20129;-84
2021/09/09 15:31:57;;;;;;;;;;;;;;;;;;5067035;28;19936;-84
2021/09/09 15:34:25;;;;;;;;;;;;;;;;;;5101212;28;19935;-84
2021/09/09 15:36:54;;;;;;;;;;;;;;;;;;5100516;28;20177;-82
2021/09/09 15:39:22;;;;;;;;;;;;;;;;;;5072019;28;19932;-83
2021/09/09 15:41:50;;;;;;;;;;;;;;;;;;5071480;28;19924;-84
2021/09/09 15:44:18;;;;;;;;;;;;;;;;;;5091888;28;19935;-84
2021/09/09 15:46:48;;;;;;;;;;;;;;;;;;5083511;28;20302;-83
2021/09/09 15:49:16;;;;;;;;;;;;;;;;;;5083337;28;19924;-80
2021/09/09 15:51:45;;;;;;;;;;;;;;;;;;5067523;28;19924;-82
2021/09/09 15:54:13;;;;;;;;;;;;;;;;;;5071284;28;19935;-84
2021/09/09 15:56:41;;;;;;;;;;;;;;;;;;5088490;28;19932;-81
2021/09/09 15:59:09;;;;;;;;;;;;;;;;;;5088517;28;20382;-84
2021/09/09 16:01:37;;;;;;;;;;;;;;;;;;5069694;28;19924;-83
2021/09/09 16:04:10;;;;;;;;;;;;;;;;;;5072317;28;20476;-83
2021/09/09 16:06:38;;;;;;;;;;;;;;;;;;5086291;28;19928;-83
2021/09/09 16:09:06;;;;;;;;;;;;;;;;;;5081966;28;19924;-82
2021/09/09 16:11:35;;;;;;;;;;;;;;;;;;5086877;28;19928;-85
2021/09/09 16:14:04;;;;;;;;;;;;;;;;;;5088412;28;19939;-85
2021/09/09 16:16:32;;;;;;;;;;;;;;;;;;5089785;28;19928;-86
2021/09/09 16:19:00;;;;;;;;;;;;;;;;;;5084618;28;19931;-84
2021/09/09 16:21:30;;;;;;;;;;;;;;;;;;5085895;28;19925;-83
2021/09/09 16:23:58;;;;;;;;;;;;;;;;;;5100041;28;22784;-84
2021/09/09 16:26:27;;;;;;;;;;;;;;;;;;5066117;28;19932;-83
2021/09/09 16:28:55;;;;;;;;;;;;;;;;;;5068112;28;19932;-84
2021/09/09 16:31:28;;;;;;;;;;;;;;;;;;5065226;28;22184;-85
2021/09/09 16:33:57;;;;;;;;;;;;;;;;;;5069122;28;19928;-84
2021/09/09 16:36:25;;;;;;;;;;;;;;;;;;5080557;28;20279;-83
2021/09/09 16:38:55;;;;;;;;;;;;;;;;;;5083084;28;20404;-83
2021/09/09 16:41:23;;;;;;;;;;;;;;;;;;5088619;28;19924;-84
2021/09/09 16:43:51;;;;;;;;;;;;;;;;;;5070679;28;19924;-84
2021/09/09 16:46:19;;;;;;;;;;;;;;;;;;5073415;28;19931;-84
2021/09/09 16:48:49;;;;;;;;;;;;;;;;;;5077225;28;19967;-85
2021/09/09 16:51:17;;;;;;;;;;;;;;;;;;5084715;28;19924;-85
2021/09/09 16:53:45;;;;;;;;;;;;;;;;;;5095376;28;19947;-84
2021/09/09 16:56:21;;;;;;;;;;;;;;;;;;5096399;28;19928;-85
2021/09/09 16:58:53;;;;;;;;;;;;;;;;;;5075528;28;20344;-84
2021/09/09 17:01:23;;;;;;;;;;;;;;;;;;5080386;28;19932;-84